Time;durP1;ratioP1;P1;durP2;ratioP2;P2;SDS_P1;SDS_P2;PMS_P1;PMS_P2;Temp;Humidity;BMP_temperature;BMP_pressure;BME280_temperature;BME280_humidity;BME280_pressure;Samples;Min_cycle;Max_cycle;Signal;HPM_P1;HPM_P2
2022/01/08 00:01:01;;;;;;;;;;;;;;;;;;5027357;28;19972;-73
2022/01/08 00:03:28;;;;;;;;;;;;;;;;;;5026459;28;19953;-72
2022/01/08 00:05:56;;;;;;;;;;;;;;;;;;5025133;28;19979;-72
2022/01/08 00:08:23;;;;;;;;;;;;;;;;;;5025594;28;19987;-73
2022/01/08 00:10:51;;;;;;;;;;;;;;;;;;5024633;28;20015;-72
2022/01/08 00:13:18;;;;;;;;;;;;;;;;;;5025520;28;20019;-72
2022/01/08 00:15:45;;;;;;;;;;;;;;;;;;5026878;28;19964;-73
2022/01/08 00:18:12;;;;;;;;;;;;;;;;;;5021881;28;19956;-72
2022/01/08 00:20:39;;;;;;;;;;;;;;;;;;5026116;28;19925;-72
2022/01/08 00:23:06;;;;;;;;;;;;;;;;;;5024813;28;20043;-73
2022/01/08 00:25:33;;;;;;;;;;;;;;;;;;5031208;28;20016;-72
2022/01/08 00:28:00;;;;;;;;;;;;;;;;;;5029932;28;19944;-72
2022/01/08 00:30:30;;;;;;;;;;;;;;;;;;5032173;28;20012;-72
2022/01/08 00:32:58;;;;;;;;;;;;;;;;;;5030384;28;19925;-72
2022/01/08 00:35:25;;;;;;;;;;;;;;;;;;5029464;28;19926;-73
2022/01/08 00:37:52;;;;;;;;;;;;;;;;;;5027762;28;19929;-72
2022/01/08 00:40:19;;;;;;;;;;;;;;;;;;5028918;28;19925;-72
2022/01/08 00:42:46;;;;;;;;;;;;;;;;;;5024935;28;19929;-72
2022/01/08 00:45:13;;;;;;;;;;;;;;;;;;5030769;28;19925;-72
2022/01/08 00:47:40;;;;;;;;;;;;;;;;;;5031820;28;19925;-72
2022/01/08 00:50:07;;;;;;;;;;;;;;;;;;5025164;28;20032;-72
2022/01/08 00:52:34;;;;;;;;;;;;;;;;;;5035248;28;19966;-72
2022/01/08 00:55:01;;;;;;;;;;;;;;;;;;5028515;28;19925;-73
2022/01/08 00:57:29;;;;;;;;;;;;;;;;;;5029266;28;19931;-72
2022/01/08 00:59:55;;;;;;;;;;;;;;;;;;5028118;28;19929;-72
2022/01/08 01:02:22;;;;;;;;;;;;;;;;;;5031468;28;19932;-72
2022/01/08 01:04:50;;;;;;;;;;;;;;;;;;5031514;28;19931;-72
2022/01/08 01:07:17;;;;;;;;;;;;;;;;;;5027768;28;20394;-72
2022/01/08 01:09:44;;;;;;;;;;;;;;;;;;5031917;28;19934;-71
2022/01/08 01:12:11;;;;;;;;;;;;;;;;;;5027558;28;19995;-71
2022/01/08 01:14:38;;;;;;;;;;;;;;;;;;5029485;28;19925;-71
2022/01/08 01:17:05;;;;;;;;;;;;;;;;;;5029582;28;19932;-72
2022/01/08 01:19:32;;;;;;;;;;;;;;;;;;5029485;28;19936;-72
2022/01/08 01:22:00;;;;;;;;;;;;;;;;;;5029864;28;19956;-72
2022/01/08 01:24:28;;;;;;;;;;;;;;;;;;5029505;28;19952;-72
2022/01/08 01:29:55;;;;;;;;;;;;;;;;;;5104693;27;19927;-71
2022/01/08 01:43:36;;;;;;;;;;;;;;;;;;5085886;28;19922;-71
2022/01/08 01:48:48;;;;;;;;;;;;;;;;;;5084169;28;19923;-71
2022/01/08 01:51:15;;;;;;;;;;;;;;;;;;5090158;28;19930;-72
2022/01/08 01:53:42;;;;;;;;;;;;;;;;;;5084057;28;19925;-72
2022/01/08 01:56:09;;;;;;;;;;;;;;;;;;5088578;28;20292;-72
2022/01/08 01:58:36;;;;;;;;;;;;;;;;;;5083602;28;19958;-72
2022/01/08 02:01:03;;;;;;;;;;;;;;;;;;5090154;28;19924;-72
2022/01/08 02:03:30;;;;;;;;;;;;;;;;;;5085913;28;19931;-72
2022/01/08 02:05:57;;;;;;;;;;;;;;;;;;5082090;28;20469;-72
2022/01/08 02:08:24;;;;;;;;;;;;;;;;;;5087903;28;20400;-72
2022/01/08 02:10:51;;;;;;;;;;;;;;;;;;5089595;28;21759;-72
2022/01/08 02:13:18;;;;;;;;;;;;;;;;;;5089739;28;19930;-72
2022/01/08 02:15:49;;;;;;;;;;;;;;;;;;5085504;28;19931;-72
2022/01/08 02:18:16;;;;;;;;;;;;;;;;;;5084594;28;20003;-72
2022/01/08 02:20:43;;;;;;;;;;;;;;;;;;5082657;28;20390;-72
2022/01/08 02:23:10;;;;;;;;;;;;;;;;;;5077593;28;20306;-72
2022/01/08 02:25:37;;;;;;;;;;;;;;;;;;5085013;28;20403;-72
2022/01/08 02:28:04;;;;;;;;;;;;;;;;;;5086500;28;19939;-72
2022/01/08 02:30:31;;;;;;;;;;;;;;;;;;5078920;28;19939;-72
2022/01/08 02:32:58;;;;;;;;;;;;;;;;;;5086546;28;19925;-72
2022/01/08 02:35:25;;;;;;;;;;;;;;;;;;5085887;28;20095;-72
2022/01/08 02:37:52;;;;;;;;;;;;;;;;;;5081485;28;19978;-72
2022/01/08 02:40:20;;;;;;;;;;;;;;;;;;5069729;28;20473;-72
2022/01/08 02:42:51;;;;;;;;;;;;;;;;;;5072871;28;19924;-72
2022/01/08 02:45:18;;;;;;;;;;;;;;;;;;5071890;28;20296;-72
2022/01/08 02:47:45;;;;;;;;;;;;;;;;;;5071236;28;20019;-72
2022/01/08 02:50:12;;;;;;;;;;;;;;;;;;5071813;28;19924;-72
2022/01/08 02:52:39;;;;;;;;;;;;;;;;;;5068989;28;20028;-72
2022/01/08 02:55:07;;;;;;;;;;;;;;;;;;5074343;28;19946;-72
2022/01/08 02:57:34;;;;;;;;;;;;;;;;;;5069322;28;19936;-72
2022/01/08 03:00:01;;;;;;;;;;;;;;;;;;5070089;28;19932;-72
2022/01/08 03:02:28;;;;;;;;;;;;;;;;;;5064285;28;19947;-71
2022/01/08 03:04:55;;;;;;;;;;;;;;;;;;5071173;28;19925;-71
2022/01/08 03:07:22;;;;;;;;;;;;;;;;;;5068967;28;19935;-71
2022/01/08 03:09:56;;;;;;;;;;;;;;;;;;5070946;28;21003;-70
2022/01/08 03:12:23;;;;;;;;;;;;;;;;;;5062858;28;19925;-70
2022/01/08 03:14:50;;;;;;;;;;;;;;;;;;5074089;28;19924;-70
2022/01/08 03:17:17;;;;;;;;;;;;;;;;;;5069154;28;19924;-70
2022/01/08 03:19:44;;;;;;;;;;;;;;;;;;5072423;28;19931;-70
2022/01/08 03:22:12;;;;;;;;;;;;;;;;;;5071707;28;19935;-70
2022/01/08 03:24:39;;;;;;;;;;;;;;;;;;5066724;28;19931;-71
2022/01/08 03:27:05;;;;;;;;;;;;;;;;;;5072456;28;19933;-71
2022/01/08 03:29:32;;;;;;;;;;;;;;;;;;5071286;28;19925;-71
2022/01/08 03:31:59;;;;;;;;;;;;;;;;;;5069931;28;19924;-71
2022/01/08 03:34:26;;;;;;;;;;;;;;;;;;5067321;28;20305;-70
2022/01/08 03:36:53;;;;;;;;;;;;;;;;;;5070688;28;19924;-70
2022/01/08 03:39:20;;;;;;;;;;;;;;;;;;5068354;28;19943;-70
2022/01/08 03:41:47;;;;;;;;;;;;;;;;;;5067006;28;19931;-70
2022/01/08 03:44:14;;;;;;;;;;;;;;;;;;5071792;28;19924;-70
2022/01/08 03:46:42;;;;;;;;;;;;;;;;;;5069392;28;19928;-70
2022/01/08 03:49:22;;;;;;;;;;;;;;;;;;5072496;28;20429;-71
2022/01/08 03:51:49;;;;;;;;;;;;;;;;;;5069720;28;19933;-71
2022/01/08 03:54:16;;;;;;;;;;;;;;;;;;5071494;28;19931;-71
2022/01/08 03:56:43;;;;;;;;;;;;;;;;;;5067569;28;19925;-71
2022/01/08 03:59:10;;;;;;;;;;;;;;;;;;5063099;28;19932;-71
2022/01/08 04:01:37;;;;;;;;;;;;;;;;;;5070564;28;19933;-71
2022/01/08 04:04:04;;;;;;;;;;;;;;;;;;5067938;28;19925;-71
2022/01/08 04:06:31;;;;;;;;;;;;;;;;;;5063063;28;19950;-71
2022/01/08 04:08:58;;;;;;;;;;;;;;;;;;5066923;28;19925;-71
2022/01/08 04:11:25;;;;;;;;;;;;;;;;;;5067715;28;20039;-71
2022/01/08 04:13:53;;;;;;;;;;;;;;;;;;5065696;28;19924;-71
2022/01/08 04:16:24;;;;;;;;;;;;;;;;;;5065499;28;19925;-71
2022/01/08 04:18:51;;;;;;;;;;;;;;;;;;5066328;28;19929;-72
2022/01/08 04:21:58;;;;;;;;;;;;;;;;;;5072478;28;19924;-71
2022/01/08 04:24:13;;;;;;;;;;;;;;;;;;5064705;28;19935;-71
2022/01/08 04:26:40;;;;;;;;;;;;;;;;;;5064815;28;19937;-71
2022/01/08 04:29:07;;;;;;;;;;;;;;;;;;5068474;28;19924;-71
2022/01/08 04:31:34;;;;;;;;;;;;;;;;;;5068064;28;20190;-71
2022/01/08 04:34:01;;;;;;;;;;;;;;;;;;5070259;28;20360;-72
2022/01/08 04:36:28;;;;;;;;;;;;;;;;;;5071454;28;19928;-71
2022/01/08 04:38:55;;;;;;;;;;;;;;;;;;5069079;28;20019;-71
2022/01/08 04:41:22;;;;;;;;;;;;;;;;;;5064727;28;19924;-72
2022/01/08 04:43:49;;;;;;;;;;;;;;;;;;5071674;28;19925;-72
2022/01/08 04:46:16;;;;;;;;;;;;;;;;;;5069985;28;19931;-72
2022/01/08 04:48:43;;;;;;;;;;;;;;;;;;5061965;28;20380;-72
2022/01/08 04:51:10;;;;;;;;;;;;;;;;;;5070867;28;19924;-72
2022/01/08 04:53:37;;;;;;;;;;;;;;;;;;5072343;28;20027;-72
2022/01/08 04:56:04;;;;;;;;;;;;;;;;;;5072224;28;19924;-72
2022/01/08 04:58:31;;;;;;;;;;;;;;;;;;5078126;28;19932;-72
2022/01/08 05:00:58;;;;;;;;;;;;;;;;;;5073996;28;19925;-72
2022/01/08 05:03:25;;;;;;;;;;;;;;;;;;5076831;28;19930;-72
2022/01/08 05:05:52;;;;;;;;;;;;;;;;;;5069264;28;19928;-72
2022/01/08 05:08:19;;;;;;;;;;;;;;;;;;5071231;28;21504;-72
2022/01/08 05:10:46;;;;;;;;;;;;;;;;;;5072167;28;19924;-72
2022/01/08 05:13:13;;;;;;;;;;;;;;;;;;5076688;28;20027;-72
2022/01/08 05:15:40;;;;;;;;;;;;;;;;;;5073934;28;19930;-72
2022/01/08 05:18:09;;;;;;;;;;;;;;;;;;5067471;28;19925;-72
2022/01/08 05:20:39;;;;;;;;;;;;;;;;;;5070946;28;19962;-72
2022/01/08 05:23:06;;;;;;;;;;;;;;;;;;5071294;28;19925;-72
2022/01/08 05:25:33;;;;;;;;;;;;;;;;;;5072130;28;20059;-72
2022/01/08 05:28:00;;;;;;;;;;;;;;;;;;5070345;28;19925;-72
2022/01/08 05:30:27;;;;;;;;;;;;;;;;;;5077953;28;19924;-71
2022/01/08 05:32:54;;;;;;;;;;;;;;;;;;5072262;28;20015;-72
2022/01/08 05:35:21;;;;;;;;;;;;;;;;;;5075138;28;19928;-71
2022/01/08 05:37:47;;;;;;;;;;;;;;;;;;5069818;28;19937;-71
2022/01/08 05:40:14;;;;;;;;;;;;;;;;;;5070087;28;19924;-72
2022/01/08 05:42:41;;;;;;;;;;;;;;;;;;5068962;28;19933;-72
2022/01/08 05:45:08;;;;;;;;;;;;;;;;;;5067697;28;19938;-71
2022/01/08 05:47:35;;;;;;;;;;;;;;;;;;5079544;28;19950;-72
2022/01/08 05:50:03;;;;;;;;;;;;;;;;;;5070576;28;19924;-72
2022/01/08 05:52:29;;;;;;;;;;;;;;;;;;5067453;28;20007;-72
2022/01/08 05:54:56;;;;;;;;;;;;;;;;;;5067567;28;19924;-72
2022/01/08 05:57:23;;;;;;;;;;;;;;;;;;5069765;28;20374;-71
2022/01/08 05:59:50;;;;;;;;;;;;;;;;;;5071317;28;19948;-72
2022/01/08 06:02:17;;;;;;;;;;;;;;;;;;5067830;28;19935;-73
2022/01/08 06:04:44;;;;;;;;;;;;;;;;;;5069510;28;19947;-72
2022/01/08 06:07:11;;;;;;;;;;;;;;;;;;5072303;28;19924;-72
2022/01/08 06:09:38;;;;;;;;;;;;;;;;;;5070055;28;19985;-73
2022/01/08 06:12:05;;;;;;;;;;;;;;;;;;5065917;28;19924;-73
2022/01/08 06:14:32;;;;;;;;;;;;;;;;;;5066706;28;19925;-72
2022/01/08 06:16:59;;;;;;;;;;;;;;;;;;5074984;28;20300;-71
2022/01/08 06:19:26;;;;;;;;;;;;;;;;;;5069246;28;19932;-71
2022/01/08 06:21:53;;;;;;;;;;;;;;;;;;5080529;28;20441;-72
2022/01/08 06:24:20;;;;;;;;;;;;;;;;;;5072934;28;19931;-72
2022/01/08 06:26:47;;;;;;;;;;;;;;;;;;5074040;28;19925;-72
2022/01/08 06:29:14;;;;;;;;;;;;;;;;;;5069665;28;19924;-72
2022/01/08 06:31:41;;;;;;;;;;;;;;;;;;5072782;28;19924;-72
2022/01/08 06:34:08;;;;;;;;;;;;;;;;;;5073909;28;19931;-72
2022/01/08 06:36:35;;;;;;;;;;;;;;;;;;5073014;28;20305;-72
2022/01/08 06:39:02;;;;;;;;;;;;;;;;;;5078438;28;19924;-72
2022/01/08 06:41:29;;;;;;;;;;;;;;;;;;5075782;28;19932;-72
2022/01/08 06:43:57;;;;;;;;;;;;;;;;;;5077223;28;19924;-72
2022/01/08 06:46:24;;;;;;;;;;;;;;;;;;5066068;28;19932;-72
2022/01/08 06:48:51;;;;;;;;;;;;;;;;;;5082305;28;19928;-72
2022/01/08 06:51:18;;;;;;;;;;;;;;;;;;5076825;28;19932;-72
2022/01/08 06:53:45;;;;;;;;;;;;;;;;;;5074271;28;20011;-72
2022/01/08 06:56:12;;;;;;;;;;;;;;;;;;5074342;28;19928;-72
2022/01/08 06:58:39;;;;;;;;;;;;;;;;;;5074286;28;19928;-71
2022/01/08 07:01:06;;;;;;;;;;;;;;;;;;5072622;28;19925;-70
2022/01/08 07:03:32;;;;;;;;;;;;;;;;;;5071182;28;20386;-70
2022/01/08 07:05:59;;;;;;;;;;;;;;;;;;5074408;28;19925;-70
2022/01/08 07:08:26;;;;;;;;;;;;;;;;;;5072904;28;19928;-70
2022/01/08 07:10:53;;;;;;;;;;;;;;;;;;5072648;28;19925;-70
2022/01/08 07:13:20;;;;;;;;;;;;;;;;;;5069419;28;20382;-70
2022/01/08 07:15:47;;;;;;;;;;;;;;;;;;5071716;28;20040;-70
2022/01/08 07:18:14;;;;;;;;;;;;;;;;;;5071132;28;19932;-70
2022/01/08 07:20:41;;;;;;;;;;;;;;;;;;5079114;28;20007;-69
2022/01/08 07:23:08;;;;;;;;;;;;;;;;;;5073902;28;19931;-70
2022/01/08 07:25:35;;;;;;;;;;;;;;;;;;5070157;28;19928;-70
2022/01/08 07:28:02;;;;;;;;;;;;;;;;;;5080005;28;19967;-70
2022/01/08 07:30:29;;;;;;;;;;;;;;;;;;5078056;28;19948;-70
2022/01/08 07:32:56;;;;;;;;;;;;;;;;;;5074007;28;19947;-70
2022/01/08 07:35:23;;;;;;;;;;;;;;;;;;5070910;28;19924;-70
2022/01/08 07:37:50;;;;;;;;;;;;;;;;;;5069169;28;20397;-70
2022/01/08 07:40:17;;;;;;;;;;;;;;;;;;5072866;28;19951;-70
2022/01/08 07:42:44;;;;;;;;;;;;;;;;;;5074301;28;19925;-70
2022/01/08 07:45:11;;;;;;;;;;;;;;;;;;5069658;28;20186;-69
2022/01/08 07:47:38;;;;;;;;;;;;;;;;;;5066711;28;19932;-70
2022/01/08 07:50:05;;;;;;;;;;;;;;;;;;5074157;28;19924;-69
2022/01/08 07:52:32;;;;;;;;;;;;;;;;;;5075114;28;19960;-70
2022/01/08 07:54:59;;;;;;;;;;;;;;;;;;5070322;28;19931;-70
2022/01/08 07:57:26;;;;;;;;;;;;;;;;;;5074133;28;19924;-70
2022/01/08 07:59:53;;;;;;;;;;;;;;;;;;5068846;28;20411;-70
2022/01/08 08:02:20;;;;;;;;;;;;;;;;;;5072260;28;19947;-70
2022/01/08 08:04:47;;;;;;;;;;;;;;;;;;5066135;28;19932;-69
2022/01/08 08:07:14;;;;;;;;;;;;;;;;;;5072743;28;19987;-70
2022/01/08 08:09:41;;;;;;;;;;;;;;;;;;5076839;28;19931;-69
2022/01/08 08:12:08;;;;;;;;;;;;;;;;;;5075348;28;19929;-69
2022/01/08 08:14:35;;;;;;;;;;;;;;;;;;5073390;28;19928;-70
2022/01/08 08:17:02;;;;;;;;;;;;;;;;;;5071647;28;19929;-70
2022/01/08 08:19:29;;;;;;;;;;;;;;;;;;5064154;28;19932;-69
2022/01/08 08:21:56;;;;;;;;;;;;;;;;;;5076837;28;19924;-69
2022/01/08 08:24:23;;;;;;;;;;;;;;;;;;5074354;28;19924;-70
2022/01/08 08:26:50;;;;;;;;;;;;;;;;;;5073854;28;19929;-70
2022/01/08 08:29:17;;;;;;;;;;;;;;;;;;5070283;28;19924;-70
2022/01/08 08:31:44;;;;;;;;;;;;;;;;;;5071391;28;19931;-71
2022/01/08 08:34:11;;;;;;;;;;;;;;;;;;5064680;28;19955;-70
2022/01/08 08:36:38;;;;;;;;;;;;;;;;;;5067053;28;21136;-70
2022/01/08 08:39:05;;;;;;;;;;;;;;;;;;5071934;28;20390;-70
2022/01/08 08:41:32;;;;;;;;;;;;;;;;;;5073817;28;19936;-71
2022/01/08 08:43:59;;;;;;;;;;;;;;;;;;5075691;28;19924;-70
2022/01/08 08:46:26;;;;;;;;;;;;;;;;;;5073419;28;20378;-70
2022/01/08 08:48:53;;;;;;;;;;;;;;;;;;5066330;28;19932;-71
2022/01/08 08:51:20;;;;;;;;;;;;;;;;;;5068167;28;19978;-71
2022/01/08 08:53:47;;;;;;;;;;;;;;;;;;5074782;28;19932;-71
2022/01/08 08:56:14;;;;;;;;;;;;;;;;;;5067376;28;19940;-71
2022/01/08 08:58:41;;;;;;;;;;;;;;;;;;5073207;28;19963;-71
2022/01/08 09:01:08;;;;;;;;;;;;;;;;;;5070115;28;19925;-71
2022/01/08 09:03:35;;;;;;;;;;;;;;;;;;5071294;28;19928;-71
2022/01/08 09:06:02;;;;;;;;;;;;;;;;;;5070426;28;19928;-71
2022/01/08 09:08:29;;;;;;;;;;;;;;;;;;5069310;28;19924;-70
2022/01/08 09:10:56;;;;;;;;;;;;;;;;;;5077347;28;20090;-71
2022/01/08 09:13:25;;;;;;;;;;;;;;;;;;5077523;28;19924;-71
2022/01/08 09:15:52;;;;;;;;;;;;;;;;;;5075459;28;20380;-70
2022/01/08 09:18:19;;;;;;;;;;;;;;;;;;5077207;28;19924;-71
2022/01/08 09:20:46;;;;;;;;;;;;;;;;;;5068391;28;20391;-70
2022/01/08 09:23:13;;;;;;;;;;;;;;;;;;5076415;28;19924;-71
2022/01/08 09:25:40;;;;;;;;;;;;;;;;;;5061955;28;19939;-71
2022/01/08 09:28:07;;;;;;;;;;;;;;;;;;5068570;28;19924;-71
2022/01/08 09:30:34;;;;;;;;;;;;;;;;;;5068980;28;19947;-70
2022/01/08 09:33:01;;;;;;;;;;;;;;;;;;5079445;28;19928;-70
2022/01/08 09:35:28;;;;;;;;;;;;;;;;;;5074220;28;20227;-70
2022/01/08 09:37:55;;;;;;;;;;;;;;;;;;5068570;28;20400;-68
2022/01/08 09:40:23;;;;;;;;;;;;;;;;;;5072804;28;19934;-70
2022/01/08 09:42:50;;;;;;;;;;;;;;;;;;5068117;28;19982;-69
2022/01/08 09:45:17;;;;;;;;;;;;;;;;;;5064037;28;19928;-69
2022/01/08 09:47:44;;;;;;;;;;;;;;;;;;5066841;28;19924;-70
2022/01/08 09:50:11;;;;;;;;;;;;;;;;;;5070751;28;19931;-70
2022/01/08 09:52:38;;;;;;;;;;;;;;;;;;5071200;28;20288;-70
2022/01/08 09:55:05;;;;;;;;;;;;;;;;;;5074294;28;19928;-70
2022/01/08 09:57:32;;;;;;;;;;;;;;;;;;5083863;28;19924;-69
2022/01/08 09:59:59;;;;;;;;;;;;;;;;;;5075887;28;20054;-70
2022/01/08 10:02:26;;;;;;;;;;;;;;;;;;5075351;28;19924;-69
2022/01/08 10:04:53;;;;;;;;;;;;;;;;;;5074663;28;19935;-69
2022/01/08 10:07:20;;;;;;;;;;;;;;;;;;5069828;28;20056;-69
2022/01/08 10:09:47;;;;;;;;;;;;;;;;;;5070922;28;19992;-69
2022/01/08 10:12:14;;;;;;;;;;;;;;;;;;5072127;28;19975;-69
2022/01/08 10:17:13;;;;;;;;;;;;;;;;;;5074995;28;19928;-69
2022/01/08 10:17:27;;;;;;;;;;;;;;;;;;5076722;28;19933;-69
2022/01/08 10:19:54;;;;;;;;;;;;;;;;;;5075261;28;20008;-69
2022/01/08 10:22:23;;;;;;;;;;;;;;;;;;5079309;28;20022;-69
2022/01/08 10:24:50;;;;;;;;;;;;;;;;;;5073639;28;19925;-70
2022/01/08 10:27:17;;;;;;;;;;;;;;;;;;5076275;28;19931;-70
2022/01/08 10:29:44;;;;;;;;;;;;;;;;;;5075323;28;19931;-70
2022/01/08 10:35:04;;;;;;;;;;;;;;;;;;5070699;28;20017;-70
2022/01/08 10:37:31;;;;;;;;;;;;;;;;;;5081848;28;19924;-70
2022/01/08 10:42:55;;;;;;;;;;;;;;;;;;5066114;28;20294;-71
2022/01/08 10:45:25;;;;;;;;;;;;;;;;;;5070409;28;19928;-71
2022/01/08 10:48:02;;;;;;;;;;;;;;;;;;5069935;28;19928;-70
2022/01/08 10:50:29;;;;;;;;;;;;;;;;;;5071228;28;19928;-69
2022/01/08 10:52:57;;;;;;;;;;;;;;;;;;5063112;28;19931;-70
2022/01/08 10:55:24;;;;;;;;;;;;;;;;;;5067357;28;19925;-70
2022/01/08 10:57:51;;;;;;;;;;;;;;;;;;5070963;28;19940;-70
2022/01/08 11:00:19;;;;;;;;;;;;;;;;;;5065901;28;19942;-70
2022/01/08 11:02:46;;;;;;;;;;;;;;;;;;5074450;28;19960;-69
2022/01/08 11:05:13;;;;;;;;;;;;;;;;;;5065698;28;19931;-68
2022/01/08 11:07:41;;;;;;;;;;;;;;;;;;5073181;28;19932;-69
2022/01/08 11:10:08;;;;;;;;;;;;;;;;;;5072877;28;20349;-69
2022/01/08 11:12:37;;;;;;;;;;;;;;;;;;5076759;28;19952;-71
2022/01/08 11:15:24;;;;;;;;;;;;;;;;;;5074586;28;19977;-69
2022/01/08 11:17:51;;;;;;;;;;;;;;;;;;5069057;28;19928;-70
2022/01/08 11:20:18;;;;;;;;;;;;;;;;;;5070641;28;19929;-70
2022/01/08 11:22:45;;;;;;;;;;;;;;;;;;5076429;28;19951;-67
2022/01/08 11:25:12;;;;;;;;;;;;;;;;;;5068393;28;19929;-67
2022/01/08 11:27:39;;;;;;;;;;;;;;;;;;5078465;28;20313;-67
2022/01/08 11:30:06;;;;;;;;;;;;;;;;;;5070281;28;19925;-66
2022/01/08 11:32:33;;;;;;;;;;;;;;;;;;5070332;28;20378;-67
2022/01/08 11:35:00;;;;;;;;;;;;;;;;;;5082405;28;19924;-66
2022/01/08 11:37:27;;;;;;;;;;;;;;;;;;5069578;28;20506;-63
2022/01/08 11:39:54;;;;;;;;;;;;;;;;;;5068244;28;19924;-63
2022/01/08 11:42:21;;;;;;;;;;;;;;;;;;5069138;28;19936;-59
2022/01/08 11:44:48;;;;;;;;;;;;;;;;;;5074874;28;19932;-60
2022/01/08 11:47:16;;;;;;;;;;;;;;;;;;5071659;28;19924;-60
2022/01/08 11:49:43;;;;;;;;;;;;;;;;;;5074481;28;19974;-61
2022/01/08 11:52:10;;;;;;;;;;;;;;;;;;5079584;28;19924;-64
2022/01/08 11:54:37;;;;;;;;;;;;;;;;;;5067024;28;19983;-65
2022/01/08 11:57:04;;;;;;;;;;;;;;;;;;5066076;28;19925;-65
2022/01/08 11:59:32;;;;;;;;;;;;;;;;;;5063967;28;19963;-65
2022/01/08 12:01:59;;;;;;;;;;;;;;;;;;5067052;28;20012;-65
2022/01/08 12:04:27;;;;;;;;;;;;;;;;;;5067815;28;19977;-66
2022/01/08 12:06:54;;;;;;;;;;;;;;;;;;5069084;28;20011;-65
2022/01/08 12:09:22;;;;;;;;;;;;;;;;;;5069248;28;19937;-65
2022/01/08 12:11:49;;;;;;;;;;;;;;;;;;5068792;28;19931;-65
2022/01/08 12:14:16;;;;;;;;;;;;;;;;;;5066407;28;20015;-66
2022/01/08 12:16:43;;;;;;;;;;;;;;;;;;5064705;28;19944;-65
2022/01/08 12:19:10;;;;;;;;;;;;;;;;;;5066287;28;19946;-64
2022/01/08 12:21:38;;;;;;;;;;;;;;;;;;5065027;28;19931;-64
2022/01/08 12:24:05;;;;;;;;;;;;;;;;;;5066375;28;19928;-64
2022/01/08 12:26:32;;;;;;;;;;;;;;;;;;5064138;28;20459;-65
2022/01/08 12:29:00;;;;;;;;;;;;;;;;;;5065098;28;20546;-65
2022/01/08 12:31:28;;;;;;;;;;;;;;;;;;5066933;28;19924;-65
2022/01/08 12:33:55;;;;;;;;;;;;;;;;;;5064216;28;19924;-64
2022/01/08 12:36:22;;;;;;;;;;;;;;;;;;5069725;28;19924;-65
2022/01/08 12:38:49;;;;;;;;;;;;;;;;;;5065287;28;19925;-64
2022/01/08 12:41:16;;;;;;;;;;;;;;;;;;5065239;28;19947;-66
2022/01/08 12:43:45;;;;;;;;;;;4.50;99.90;;;;;;5069305;28;20496;-67
2022/01/08 12:46:18;;;;;;;;;;;4.60;99.90;;;;;;5070063;28;19970;-65
2022/01/08 12:49:03;;;;;;;;;;;4.60;99.90;;;;;;5068160;28;19933;-67
2022/01/08 12:51:41;;;;;;;;;;;4.50;99.90;;;;;;5060250;28;19932;-66
2022/01/08 12:54:08;;;;;;;;;;;4.50;99.90;;;;;;5065490;28;19924;-65
2022/01/08 12:56:35;;;;;;;;;;;4.50;99.90;;;;;;5066591;28;19924;-64
2022/01/08 12:59:04;;;;;;;;;;;4.50;99.90;;;;;;5065069;28;20024;-65
2022/01/08 13:01:31;;;;;;;;;;;4.50;99.90;;;;;;5064589;28;19924;-66
2022/01/08 13:06:36;;;;;;;;;;;4.50;99.90;;;;;;5045560;28;19933;-66
2022/01/08 13:09:04;;;;;;;;;;;4.40;99.90;;;;;;5049519;28;19954;-64
2022/01/08 13:11:31;;;;;;;;;;;4.50;99.90;;;;;;5047985;28;20211;-64
2022/01/08 13:14:00;;;;;;;;;;;4.60;99.90;;;;;;5049068;28;19960;-63
2022/01/08 13:16:29;;;;;;;;;;;4.60;99.90;;;;;;5032873;28;19944;-65
2022/01/08 13:18:57;;;;;;;;;;;4.60;99.90;;;;;;5030394;28;19929;-64
2022/01/08 13:21:24;;;;;;;;;;;4.50;99.90;;;;;;5028398;28;19925;-63
2022/01/08 13:23:52;;;;;;;;;;;4.50;99.90;;;;;;5024487;28;19933;-63
2022/01/08 13:26:27;;;;;;;;;;;4.60;99.90;;;;;;5026403;28;19933;-63
2022/01/08 13:28:54;;;;;;;;;;;4.60;99.90;;;;;;5022870;28;21192;-63
2022/01/08 13:31:21;;;;;;;;;;;4.60;99.90;;;;;;5037047;28;19929;-64
2022/01/08 13:33:55;;;;;;;;;;;4.60;99.90;;;;;;5032804;28;19925;-64
2022/01/08 13:36:22;;;;;;;;;;;4.50;99.90;;;;;;5033021;28;19929;-64
2022/01/08 13:38:49;;;;;;;;;;;4.40;99.90;;;;;;5033730;28;20374;-62
2022/01/08 13:41:18;;;;;;;;;;;4.30;99.90;;;;;;5035999;28;19925;-63
2022/01/08 13:43:55;;;;;;;;;;;4.10;99.90;;;;;;5031459;28;19931;-64
2022/01/08 13:46:21;;;;;;;;;;;4.00;99.90;;;;;;5027553;28;20441;-64
2022/01/08 13:48:48;;;;;;;;;;;3.90;99.90;;;;;;5037227;28;20024;-64
2022/01/08 13:51:18;;;;;;;;;;;3.90;99.90;;;;;;5026685;28;19925;-64
2022/01/08 13:53:55;;;;;;;;;;;3.90;99.90;;;;;;5040047;28;19931;-63
2022/01/08 13:56:22;;;;;;;;;;;3.90;99.90;;;;;;5027228;28;20099;-64
2022/01/08 13:58:49;;;;;;;;;;;3.80;99.90;;;;;;5031248;28;19932;-64
2022/01/08 14:01:17;;;;;;;;;;;3.80;99.90;;;;;;5035763;28;19932;-64
2022/01/08 14:03:45;;;;;;;;;;;3.70;99.90;;;;;;5028650;28;20394;-64
2022/01/08 14:06:22;;;;;;;;;;;3.70;99.90;;;;;;5034788;28;19931;-65
2022/01/08 14:08:52;;;;;;;;;;;3.60;99.90;;;;;;5032585;28;19925;-64
2022/01/08 14:11:20;;;;;;;;;;;3.60;99.90;;;;;;5033351;28;19931;-64
2022/01/08 14:13:53;;;;;;;;;;;3.50;99.90;;;;;;5028781;28;19979;-64
2022/01/08 14:16:26;;;;;;;;;;;3.50;99.90;;;;;;5041764;28;19924;-64
2022/01/08 14:18:53;;;;;;;;;;;3.50;99.90;;;;;;5034629;28;19933;-65
2022/01/08 14:21:22;;;;;;;;;;;3.50;99.90;;;;;;5033634;28;20026;-65
2022/01/08 14:23:48;;;;;;;;;;;3.60;99.90;;;;;;5039518;28;19929;-65
2022/01/08 14:26:16;;;;;;;;;;;3.70;99.90;;;;;;5035822;28;19987;-65
2022/01/08 14:28:43;;;;;;;;;;;3.70;99.90;;;;;;5026205;28;19929;-65
2022/01/08 14:31:12;;;;;;;;;;;3.80;99.90;;;;;;5037690;28;19925;-64
2022/01/08 14:33:58;;;;;;;;;;;3.80;99.90;;;;;;5037598;28;19925;-65
2022/01/08 14:36:26;;;;;;;;;;;3.80;99.90;;;;;;5043209;28;20113;-65
2022/01/08 14:38:53;;;;;;;;;;;3.90;99.90;;;;;;5041698;28;19954;-65
2022/01/08 14:41:31;;;;;;;;;;;3.90;99.90;;;;;;5034256;28;21257;-64
2022/01/08 14:43:58;;;;;;;;;;;3.90;99.90;;;;;;5036961;28;19925;-64
2022/01/08 14:46:25;;;;;;;;;;;4.00;99.90;;;;;;5043306;28;19925;-65
2022/01/08 14:48:54;;;;;;;;;;;4.00;99.90;;;;;;5034791;28;19935;-65
2022/01/08 14:51:20;;;;;;;;;;;4.10;99.90;;;;;;5034156;28;20012;-65
2022/01/08 14:53:49;;;;;;;;;;;4.10;99.90;;;;;;5031224;28;19967;-64
2022/01/08 14:56:17;;;;;;;;;;;4.10;99.90;;;;;;5042121;28;20015;-65
2022/01/08 14:58:43;;;;;;;;;;;4.10;99.90;;;;;;5033969;28;19943;-66
2022/01/08 15:01:10;;;;;;;;;;;4.10;99.90;;;;;;5034409;28;19936;-65
2022/01/08 15:03:36;;;;;;;;;;;4.10;99.90;;;;;;5035836;28;20302;-64
2022/01/08 15:06:03;;;;;;;;;;;4.10;99.90;;;;;;5034363;28;19925;-64
2022/01/08 15:08:30;;;;;;;;;;;4.10;99.90;;;;;;5034095;28;19925;-64
2022/01/08 15:10:58;;;;;;;;;;;4.10;99.90;;;;;;5038189;28;19924;-65
2022/01/08 15:13:26;;;;;;;;;;;4.20;99.90;;;;;;5041209;28;19932;-65
2022/01/08 15:15:55;;;;;;;;;;;4.10;99.90;;;;;;5037328;28;19933;-65
2022/01/08 15:18:21;;;;;;;;;;;4.20;99.90;;;;;;5030561;28;19934;-64
2022/01/08 15:20:48;;;;;;;;;;;4.10;99.90;;;;;;5031374;28;20297;-63
2022/01/08 15:23:15;;;;;;;;;;;4.10;99.90;;;;;;5042585;28;19932;-65
2022/01/08 15:25:41;;;;;;;;;;;4.10;99.90;;;;;;5037903;28;20017;-65
2022/01/08 15:28:09;;;;;;;;;;;4.10;99.90;;;;;;5028060;28;20528;-65
2022/01/08 15:30:36;;;;;;;;;;;4.10;99.90;;;;;;5033168;28;19987;-66
2022/01/08 15:33:03;;;;;;;;;;;4.10;99.90;;;;;;5023503;28;19968;-66
2022/01/08 15:35:30;;;;;;;;;;;4.20;99.90;;;;;;5021623;28;19925;-66
2022/01/08 15:37:57;;;;;;;;;;;4.20;99.90;;;;;;5025906;28;19932;-65
2022/01/08 15:40:23;;;;;;;;;;;4.20;99.90;;;;;;5032053;28;20397;-65
2022/01/08 15:42:52;;;;;;;;;;;4.20;99.90;;;;;;5030703;28;19934;-64
2022/01/08 15:45:20;;;;;;;;;;;4.20;99.90;;;;;;5031234;28;20323;-64
2022/01/08 15:47:47;;;;;;;;;;;4.20;99.90;;;;;;5030817;28;19932;-64
2022/01/08 15:50:14;;;;;;;;;;;4.20;99.90;;;;;;5026902;28;19979;-64
2022/01/08 15:52:40;;;;;;;;;;;4.30;99.90;;;;;;5032022;28;19925;-65
2022/01/08 15:55:07;;;;;;;;;;;4.30;99.90;;;;;;5033722;28;19932;-64
2022/01/08 15:57:34;;;;;;;;;;;4.30;99.90;;;;;;5027729;28;19929;-65
2022/01/08 16:00:00;;;;;;;;;;;4.30;99.90;;;;;;5029415;28;19925;-65
2022/01/08 16:02:28;;;;;;;;;;;4.30;99.90;;;;;;5029248;28;20036;-65
2022/01/08 16:04:55;;;;;;;;;;;4.30;99.90;;;;;;5025400;28;19933;-65
2022/01/08 16:07:21;;;;;;;;;;;4.30;99.90;;;;;;5027608;28;20305;-64
2022/01/08 16:09:48;;;;;;;;;;;4.30;99.90;;;;;;5027646;28;19936;-65
2022/01/08 16:12:15;;;;;;;;;;;4.30;99.90;;;;;;5027772;28;19948;-65
2022/01/08 16:14:41;;;;;;;;;;;4.30;99.90;;;;;;5027683;28;19925;-64
2022/01/08 16:17:08;;;;;;;;;;;4.30;99.90;;;;;;5030342;28;19925;-64
2022/01/08 16:19:36;;;;;;;;;;;4.30;99.90;;;;;;5025514;28;20513;-64
2022/01/08 16:22:02;;;;;;;;;;;4.30;99.90;;;;;;5026302;28;19936;-65
2022/01/08 16:24:29;;;;;;;;;;;4.30;99.90;;;;;;5024273;28;20279;-64
2022/01/08 16:26:56;;;;;;;;;;;4.30;99.90;;;;;;5028548;28;19925;-64
2022/01/08 16:29:23;;;;;;;;;;;4.30;99.90;;;;;;5029307;28;19929;-63
2022/01/08 16:31:50;;;;;;;;;;;4.40;99.90;;;;;;5028602;28;20390;-64
2022/01/08 16:34:17;;;;;;;;;;;4.40;99.90;;;;;;5028342;28;19932;-63
2022/01/08 16:36:45;;;;;;;;;;;4.40;99.90;;;;;;5027713;28;19925;-63